Time;durP1;ratioP1;P1;durP2;ratioP2;P2;SDS_P1;SDS_P2;PMS_P1;PMS_P2;Temp;Humidity;BMP_temperature;BMP_pressure;BME280_temperature;BME280_humidity;BME280_pressure;Samples;Min_cycle;Max_cycle;Signal;HPM_P1;HPM_P2
2021/12/11 00:00:53;;;;;;;10.93;8.80;;;;;;;;;;5089499;28;20024;-77
2021/12/11 00:03:24;;;;;;;15.77;10.23;;;;;;;;;;5091280;28;20036;-77
2021/12/11 00:05:55;;;;;;;29.15;20.75;;;;;;;;;;5074540;28;20032;-77
2021/12/11 00:08:23;;;;;;;15.93;10.65;;;;;;;;;;5091183;28;20040;-78
2021/12/11 00:10:51;;;;;;;13.85;8.00;;;;;;;;;;5075638;28;20070;-77
2021/12/11 00:13:21;;;;;;;19.20;11.48;;;;;;;;;;5076084;28;20049;-78
2021/12/11 00:15:47;;;;;;;14.07;9.20;;;;;;;;;;5094563;28;20028;-79
2021/12/11 00:18:19;;;;;;;11.43;8.75;;;;;;;;;;5093398;28;20040;-78
2021/12/11 00:20:53;;;;;;;13.95;8.70;;;;;;;;;;5093868;28;20071;-77
2021/12/11 00:23:20;;;;;;;16.27;9.57;;;;;;;;;;5094598;28;20097;-79
2021/12/11 00:25:46;;;;;;;9.43;4.88;;;;;;;;;;5094575;28;20123;-77
2021/12/11 00:28:12;;;;;;;8.18;6.10;;;;;;;;;;5076167;28;20111;-77
2021/12/11 00:30:40;;;;;;;9.88;5.18;;;;;;;;;;5076173;28;20048;-79
2021/12/11 00:33:08;;;;;;;7.28;4.20;;;;;;;;;;5093142;28;20039;-78
2021/12/11 00:35:35;;;;;;;9.02;4.00;;;;;;;;;;5094339;28;20063;-78
2021/12/11 00:38:05;;;;;;;6.20;3.60;;;;;;;;;;5094756;28;20040;-76
2021/12/11 00:40:30;;;;;;;6.57;3.58;;;;;;;;;;5094280;28;20040;-77
2021/12/11 00:42:57;;;;;;;6.43;3.17;;;;;;;;;;5094286;28;20040;-76
2021/12/11 00:45:24;;;;;;;6.25;3.05;;;;;;;;;;5094149;28;20081;-76
2021/12/11 00:47:51;;;;;;;5.18;3.08;;;;;;;;;;5093853;28;20059;-77
2021/12/11 00:50:18;;;;;;;7.65;3.88;;;;;;;;;;5092289;28;20115;-79
2021/12/11 00:52:45;;;;;;;8.18;4.50;;;;;;;;;;5094376;28;20032;-79
2021/12/11 00:55:26;;;;;;;6.75;4.10;;;;;;;;;;5092766;28;20115;-80
2021/12/11 00:58:04;;;;;;;10.35;4.40;;;;;;;;;;5075856;28;20141;-77
2021/12/11 01:00:33;;;;;;;8.57;5.00;;;;;;;;;;5093834;28;20364;-77
2021/12/11 01:02:59;;;;;;;10.27;5.10;;;;;;;;;;5093823;28;20123;-76
2021/12/11 01:05:25;;;;;;;9.88;5.10;;;;;;;;;;5093934;28;20353;-76
2021/12/11 01:07:50;;;;;;;9.50;5.28;;;;;;;;;;5093695;28;20024;-74
2021/12/11 01:10:23;;;;;;;6.97;5.03;;;;;;;;;;5092197;28;20441;-76
2021/12/11 01:12:56;;;;;;;7.80;5.25;;;;;;;;;;5092517;28;20036;-77
2021/12/11 01:15:25;;;;;;;6.95;5.65;;;;;;;;;;5092810;28;20103;-76
2021/12/11 01:18:21;;;;;;;8.20;5.53;;;;;;;;;;5075277;28;20031;-77
2021/12/11 01:20:57;;;;;;;8.70;5.57;;;;;;;;;;5093278;28;20032;-76
2021/12/11 01:24:08;;;;;;;8.90;4.90;;;;;;;;;;5075593;28;20386;-78
2021/12/11 01:26:20;;;;;;;5.47;3.70;;;;;;;;;;5090542;28;20129;-78
2021/12/11 01:28:46;;;;;;;6.80;3.90;;;;;;;;;;5093384;28;20082;-75
2021/12/11 01:31:13;;;;;;;5.63;3.47;;;;;;;;;;5093303;28;20078;-77
2021/12/11 01:33:39;;;;;;;5.30;3.70;;;;;;;;;;5092140;28;20127;-75
2021/12/11 01:36:05;;;;;;;5.50;3.70;;;;;;;;;;5093333;28;20116;-76
2021/12/11 01:38:31;;;;;;;5.68;4.00;;;;;;;;;;5093721;28;20055;-77
2021/12/11 01:40:58;;;;;;;6.40;4.50;;;;;;;;;;5091934;28;20028;-76
2021/12/11 01:43:26;;;;;;;5.38;3.83;;;;;;;;;;5093263;28;20403;-77
2021/12/11 01:45:52;;;;;;;6.45;4.30;;;;;;;;;;5092110;28;20058;-78
2021/12/11 01:48:18;;;;;;;6.85;3.90;;;;;;;;;;5093084;28;20506;-77
2021/12/11 01:50:46;;;;;;;5.32;3.55;;;;;;;;;;5092047;28;20502;-78
2021/12/11 01:53:16;;;;;;;5.43;3.33;;;;;;;;;;5091874;28;20032;-78
2021/12/11 01:55:46;;;;;;;4.53;3.00;;;;;;;;;;5093115;28;20039;-78
2021/12/11 01:58:11;;;;;;;;;;;;;;;;;;5092326;28;20115;-78
2021/12/11 02:00:47;;;;;;;4.03;2.20;;;;;;;;;;5092869;28;19963;-78
2021/12/11 02:03:15;;;;;;;3.85;2.30;;;;;;;;;;5091993;28;20266;-77
2021/12/11 02:05:41;;;;;;;4.20;2.75;;;;;;;;;;5091749;28;20067;-77
2021/12/11 02:08:08;;;;;;;4.18;2.08;;;;;;;;;;5092816;28;20055;-79
2021/12/11 02:10:51;;;;;;;5.00;2.10;;;;;;;;;;5091722;28;20035;-76
2021/12/11 02:13:22;;;;;;;3.75;2.03;;;;;;;;;;5091848;28;20043;-78
2021/12/11 02:15:52;;;;;;;3.65;2.30;;;;;;;;;;5091704;28;20391;-78
2021/12/11 02:18:34;;;;;;;3.33;2.03;;;;;;;;;;5091347;28;20051;-79
2021/12/11 02:21:05;;;;;;;3.03;2.00;;;;;;;;;;5092730;28;20050;-78
2021/12/11 02:23:30;;;;;;;3.72;2.40;;;;;;;;;;5074593;28;20524;-78
2021/12/11 02:26:01;;;;;;;3.50;2.13;;;;;;;;;;5074301;28;20123;-79
2021/12/11 02:28:31;;;;;;;5.32;2.78;;;;;;;;;;5092686;28;20078;-78
2021/12/11 02:31:15;;;;;;;5.50;3.00;;;;;;;;;;5091482;28;20055;-78
2021/12/11 02:33:52;;;;;;;3.90;2.90;;;;;;;;;;5092216;28;20084;-79
2021/12/11 02:36:30;;;;;;;5.88;3.20;;;;;;;;;;5093015;28;20530;-79
2021/12/11 02:39:00;;;;;;;4.65;3.33;;;;;;;;;;5093081;28;20044;-78
2021/12/11 02:41:25;;;;;;;5.10;3.25;;;;;;;;;;5092841;28;20036;-79
2021/12/11 02:43:54;;;;;;;5.10;3.30;;;;;;;;;;5092329;28;20475;-78
2021/12/11 02:46:31;;;;;;;5.95;3.50;;;;;;;;;;5074260;28;20077;-79
2021/12/11 02:49:00;;;;;;;5.45;3.88;;;;;;;;;;5092511;28;20043;-78
2021/12/11 02:51:29;;;;;;;5.22;3.40;;;;;;;;;;5092475;28;20036;-78
2021/12/11 02:53:56;;;;;;;5.35;3.83;;;;;;;;;;5092435;28;20050;-77
2021/12/11 02:56:25;;;;;;;6.45;4.25;;;;;;;;;;5092634;28;20357;-79
2021/12/11 02:58:56;;;;;;;5.20;3.78;;;;;;;;;;5092070;28;20081;-79
2021/12/11 03:01:27;;;;;;;5.03;3.25;;;;;;;;;;5092474;28;20387;-78
2021/12/11 03:04:00;;;;;;;4.55;2.88;;;;;;;;;;5092623;28;20043;-79
2021/12/11 03:06:27;;;;;;;4.15;3.20;;;;;;;;;;5092343;28;20111;-78
2021/12/11 03:08:53;;;;;;;9.45;4.80;;;;;;;;;;5090957;28;20043;-79
2021/12/11 03:11:20;;;;;;;3.90;2.95;;;;;;;;;;5074043;28;20028;-78
2021/12/11 03:13:50;;;;;;;3.95;2.53;;;;;;;;;;5094908;28;20432;-78
2021/12/11 03:16:21;;;;;;;4.95;3.00;;;;;;;;;;5095874;28;20487;-79
2021/12/11 03:18:48;;;;;;;4.90;3.00;;;;;;;;;;5095891;28;20082;-79
2021/12/11 03:21:14;;;;;;;3.72;2.33;;;;;;;;;;5094345;28;20491;-78
2021/12/11 03:23:40;;;;;;;3.00;2.17;;;;;;;;;;5095640;28;20123;-79
2021/12/11 03:26:06;;;;;;;3.97;2.67;;;;;;;;;;5094263;28;20031;-79
2021/12/11 03:28:31;;;;;;;3.00;2.00;;;;;;;;;;5095482;28;20040;-79
2021/12/11 03:31:00;;;;;;;3.63;2.30;;;;;;;;;;5095486;28;20024;-78
2021/12/11 03:33:31;;;;;;;3.90;2.38;;;;;;;;;;5095354;28;20043;-80
2021/12/11 03:35:57;;;;;;;2.95;1.70;;;;;;;;;;5095382;28;20093;-78
2021/12/11 03:38:24;;;;;;;4.05;1.88;;;;;;;;;;5094202;28;20047;-78
2021/12/11 03:40:49;;;;;;;3.03;1.70;;;;;;;;;;5095300;28;20028;-80
2021/12/11 03:43:17;;;;;;;2.97;1.60;;;;;;;;;;5095306;28;20031;-79
2021/12/11 03:45:43;;;;;;;2.55;1.10;;;;;;;;;;5095272;28;20107;-80
2021/12/11 03:48:14;;;;;;;3.75;2.10;;;;;;;;;;5093880;28;20039;-80
2021/12/11 03:50:39;;;;;;;2.92;1.52;;;;;;;;;;5093952;28;20036;-81
2021/12/11 03:53:05;;;;;;;3.97;1.73;;;;;;;;;;5095088;28;20105;-79
2021/12/11 03:55:35;;;;;;;5.53;3.00;;;;;;;;;;5093909;28;20060;-81
2021/12/11 03:58:01;;;;;;;3.22;1.90;;;;;;;;;;5095056;28;20119;-81
2021/12/11 04:00:30;;;;;;;4.25;1.70;;;;;;;;;;5095350;28;20040;-81
2021/12/11 04:03:03;;;;;;;4.32;1.42;;;;;;;;;;5082871;28;20040;-81
2021/12/11 04:05:29;;;;;;;4.80;1.63;;;;;;;;;;5053271;28;20047;-80
2021/12/11 04:07:56;;;;;;;4.88;2.10;;;;;;;;;;5070583;28;20041;-80
2021/12/11 04:10:22;;;;;;;2.67;1.80;;;;;;;;;;5070769;28;20028;-80
2021/12/11 04:12:48;;;;;;;2.55;1.50;;;;;;;;;;5070542;28;20032;-81
2021/12/11 04:15:14;;;;;;;3.75;2.28;;;;;;;;;;5069322;28;20194;-82
2021/12/11 04:17:40;;;;;;;3.67;1.77;;;;;;;;;;5069284;28;20056;-78
2021/12/11 04:20:11;;;;;;;15.75;6.60;;;;;;;;;;5070650;28;20087;-76
2021/12/11 04:22:37;;;;;;;6.72;2.95;;;;;;;;;;5070004;28;20040;-79
2021/12/11 04:25:04;;;;;;;3.80;2.00;;;;;;;;;;5069860;28;20085;-79
2021/12/11 04:27:29;;;;;;;4.00;2.13;;;;;;;;;;5069572;28;20047;-79
2021/12/11 04:29:55;;;;;;;4.53;2.45;;;;;;;;;;5070494;28;20048;-80
2021/12/11 04:32:22;;;;;;;3.72;2.03;;;;;;;;;;5090321;28;20031;-79
2021/12/11 04:34:48;;;;;;;3.88;2.30;;;;;;;;;;5089235;28;20042;-80
2021/12/11 04:37:25;;;;;;;3.75;2.00;;;;;;;;;;5090844;28;20130;-77
2021/12/11 04:39:56;;;;;;;4.47;2.13;;;;;;;;;;5090503;28;20089;-80
2021/12/11 04:45:08;;;;;;;5.07;2.47;;;;;;;;;;5089099;28;20055;-78
2021/12/11 04:47:50;;;;;;;6.00;2.13;;;;;;;;;;5089318;28;20040;-79
2021/12/11 04:50:28;;;;;;;3.80;2.22;;;;;;;;;;5072627;28;20059;-76
2021/12/11 04:52:58;;;;;;;3.45;1.80;;;;;;;;;;5090257;28;20541;-80
2021/12/11 04:56:13;;;;;;;3.58;2.25;;;;;;;;;;5090413;28;20036;-79
2021/12/11 05:04:12;;;;;;;5.60;1.60;;;;;;;;;;5088931;28;20040;-81
2021/12/11 05:09:24;;;;;;;2.42;1.15;;;;;;;;;;5090111;28;20031;-81
2021/12/11 05:14:56;;;;;;;2.50;1.30;;;;;;;;;;5066041;28;20403;-81
2021/12/11 05:17:23;;;;;;;2.97;1.40;;;;;;;;;;5089703;28;20036;-73
2021/12/11 05:19:49;;;;;;;4.38;1.95;;;;;;;;;;5088949;28;20436;-80
2021/12/11 05:22:16;;;;;;;5.13;2.80;;;;;;;;;;5088478;28;20369;-81
2021/12/11 05:24:43;;;;;;;3.65;2.38;;;;;;;;;;5087929;28;20556;-79
2021/12/11 05:27:09;;;;;;;5.07;2.85;;;;;;;;;;5088285;28;20403;-82
2021/12/11 05:29:34;;;;;;;6.32;3.60;;;;;;;;;;5088445;28;20040;-81
2021/12/11 05:32:01;;;;;;;5.70;3.78;;;;;;;;;;5088670;28;20036;-79
2021/12/11 05:34:27;;;;;;;7.50;3.83;;;;;;;;;;5089553;28;20471;-80
2021/12/11 05:36:52;;;;;;;5.90;4.05;;;;;;;;;;5089279;28;20035;-78
2021/12/11 05:39:19;;;;;;;7.07;4.70;;;;;;;;;;5089708;28;20016;-80
2021/12/11 05:41:45;;;;;;;7.30;4.70;;;;;;;;;;5089623;28;20032;-78
2021/12/11 05:44:12;;;;;;;5.95;4.28;;;;;;;;;;5089871;28;20032;-77
2021/12/11 05:46:37;;;;;;;6.78;4.40;;;;;;;;;;5089333;28;20043;-80
2021/12/11 05:49:04;;;;;;;7.75;5.38;;;;;;;;;;5087845;28;20040;-78
2021/12/11 05:51:37;;;;;;;7.57;5.18;;;;;;;;;;5088162;28;20032;-78
2021/12/11 05:54:02;;;;;;;9.50;5.63;;;;;;;;;;5089547;28;20044;-78
2021/12/11 05:56:34;;;;;;;7.35;5.72;;;;;;;;;;5070982;28;20042;-76
2021/12/11 05:58:59;;;;;;;7.07;5.55;;;;;;;;;;5087566;28;20447;-76
2021/12/11 06:01:25;;;;;;;9.10;6.03;;;;;;;;;;5089524;28;20052;-80
2021/12/11 06:03:51;;;;;;;7.70;5.47;;;;;;;;;;5089653;28;20102;-81
2021/12/11 06:06:17;;;;;;;6.65;5.38;;;;;;;;;;5087906;28;20050;-77
2021/12/11 06:08:43;;;;;;;6.93;4.82;;;;;;;;;;5089075;28;20031;-80
2021/12/11 06:11:09;;;;;;;6.50;4.72;;;;;;;;;;5088820;28;20131;-80
2021/12/11 06:13:34;;;;;;;6.88;4.18;;;;;;;;;;5088251;28;20032;-79
2021/12/11 06:16:00;;;;;;;5.15;3.53;;;;;;;;;;5089074;28;20073;-80
2021/12/11 06:18:26;;;;;;;6.75;2.95;;;;;;;;;;5087577;28;20085;-79
2021/12/11 06:20:51;;;;;;;4.65;3.08;;;;;;;;;;5088829;28;20024;-77
2021/12/11 06:23:17;;;;;;;4.55;2.70;;;;;;;;;;5089004;28;20051;-80
2021/12/11 06:25:43;;;;;;;3.63;2.20;;;;;;;;;;5087865;28;20475;-79
2021/12/11 06:28:09;;;;;;;3.10;1.70;;;;;;;;;;5089022;28;20032;-80
2021/12/11 06:30:36;;;;;;;3.10;1.98;;;;;;;;;;5088717;28;20055;-78
2021/12/11 06:33:03;;;;;;;2.50;1.58;;;;;;;;;;5087402;28;20039;-83
2021/12/11 06:35:31;;;;;;;3.60;1.15;;;;;;;;;;5087300;28;20442;-79
2021/12/11 06:37:57;;;;;;;2.45;1.30;;;;;;;;;;5087380;28;20429;-80
2021/12/11 06:40:23;;;;;;;2.65;1.10;;;;;;;;;;5087212;28;20036;-80
2021/12/11 06:42:51;;;;;;;1.92;1.25;;;;;;;;;;5088284;28;20027;-76
2021/12/11 06:45:16;;;;;;;1.30;0.98;;;;;;;;;;5087532;28;20084;-79
2021/12/11 06:47:42;;;;;;;1.45;0.93;;;;;;;;;;5086612;28;20115;-78
2021/12/11 06:50:08;;;;;;;0.65;0.60;;;;;;;;;;5087218;28;20070;-79
2021/12/11 06:52:33;;;;;;;1.33;0.75;;;;;;;;;;5088669;28;20024;-78
2021/12/11 06:54:59;;;;;;;1.00;0.60;;;;;;;;;;5088348;28;20043;-78
2021/12/11 06:57:25;;;;;;;1.00;0.70;;;;;;;;;;5070238;28;20036;-77
2021/12/11 06:59:50;;;;;;;1.42;0.90;;;;;;;;;;5087138;28;20032;-76
2021/12/11 07:02:17;;;;;;;1.45;0.80;;;;;;;;;;5088593;28;20077;-77
2021/12/11 07:04:43;;;;;;;3.72;0.70;;;;;;;;;;5087285;28;20035;-79
2021/12/11 07:07:09;;;;;;;1.52;0.90;;;;;;;;;;5088421;28;20032;-75
2021/12/11 07:09:35;;;;;;;1.27;0.80;;;;;;;;;;5087838;28;20044;-78
2021/12/11 07:12:01;;;;;;;1.52;0.90;;;;;;;;;;5088245;28;20375;-78
2021/12/11 07:14:29;;;;;;;1.13;0.77;;;;;;;;;;5088470;28;20038;-78
2021/12/11 07:16:54;;;;;;;1.38;0.70;;;;;;;;;;5088102;28;20638;-78
2021/12/11 07:19:20;;;;;;;1.30;0.80;;;;;;;;;;5088057;28;20459;-79
2021/12/11 07:21:50;;;;;;;0.98;0.57;;;;;;;;;;5088413;28;20044;-77
2021/12/11 07:24:17;;;;;;;1.33;0.70;;;;;;;;;;5088321;28;20040;-77
2021/12/11 07:26:42;;;;;;;1.98;0.70;;;;;;;;;;5087748;28;20119;-79
2021/12/11 07:29:10;;;;;;;1.83;0.82;;;;;;;;;;5088183;28;20554;-78
2021/12/11 07:31:36;;;;;;;1.00;0.60;;;;;;;;;;5088021;28;20039;-79
2021/12/11 07:34:01;;;;;;;0.88;0.50;;;;;;;;;;5088120;28;20032;-79
2021/12/11 07:36:28;;;;;;;1.45;0.85;;;;;;;;;;5087715;28;20044;-78
2021/12/11 07:38:54;;;;;;;2.80;0.60;;;;;;;;;;5086553;28;20035;-77
2021/12/11 07:41:20;;;;;;;0.73;0.50;;;;;;;;;;5086549;28;20050;-74
2021/12/11 07:43:46;;;;;;;2.00;0.50;;;;;;;;;;5088150;28;20913;-77
2021/12/11 07:46:15;;;;;;;2.97;0.73;;;;;;;;;;5087949;28;20032;-77
2021/12/11 07:48:44;;;;;;;0.43;0.32;;;;;;;;;;5086406;28;20039;-78
2021/12/11 07:51:10;;;;;;;0.60;0.50;;;;;;;;;;5069888;28;20114;-77
2021/12/11 07:53:36;;;;;;;0.68;0.40;;;;;;;;;;5087647;28;20131;-77
2021/12/11 07:56:01;;;;;;;0.63;0.40;;;;;;;;;;5088001;28;20032;-77
2021/12/11 07:58:29;;;;;;;1.50;0.65;;;;;;;;;;5089355;28;20036;-75
2021/12/11 08:00:55;;;;;;;0.95;0.60;;;;;;;;;;5090841;28;20027;-76
2021/12/11 08:03:20;;;;;;;0.40;0.40;;;;;;;;;;5091243;28;20372;-75
2021/12/11 08:05:47;;;;;;;0.90;0.60;;;;;;;;;;5091307;28;20043;-77
2021/12/11 08:08:12;;;;;;;0.52;0.50;;;;;;;;;;5089699;28;20040;-77
2021/12/11 08:10:40;;;;;;;0.90;0.60;;;;;;;;;;5090566;28;20081;-76
2021/12/11 08:13:06;;;;;;;1.10;0.65;;;;;;;;;;5089692;28;20092;-75
2021/12/11 08:15:31;;;;;;;2.63;0.75;;;;;;;;;;5091169;28;20028;-78
2021/12/11 08:17:58;;;;;;;0.73;0.45;;;;;;;;;;5089682;28;20085;-78
2021/12/11 08:20:26;;;;;;;3.33;0.60;;;;;;;;;;5090561;28;20039;-78
2021/12/11 08:22:52;;;;;;;0.85;0.55;;;;;;;;;;5090425;28;20020;-77
2021/12/11 08:25:19;;;;;;;0.70;0.50;;;;;;;;;;5090962;28;20525;-78
2021/12/11 08:27:44;;;;;;;0.80;0.50;;;;;;;;;;5089639;28;20028;-76
2021/12/11 08:30:10;;;;;;;0.52;0.40;;;;;;;;;;5090582;28;20059;-77
2021/12/11 08:32:35;;;;;;;0.70;0.40;;;;;;;;;;5090866;28;20399;-78
2021/12/11 08:35:01;;;;;;;0.40;0.40;;;;;;;;;;5089365;28;20036;-68
2021/12/11 08:37:27;;;;;;;0.70;0.50;;;;;;;;;;5089032;28;20047;-68
2021/12/11 08:39:52;;;;;;;0.80;0.60;;;;;;;;;;5070297;28;20028;-67
2021/12/11 08:42:20;;;;;;;1.27;0.52;;;;;;;;;;5071240;28;20036;-68
2021/12/11 08:44:52;;;;;;;0.55;0.47;;;;;;;;;;5072131;28;20036;-67
2021/12/11 08:47:18;;;;;;;1.60;0.60;;;;;;;;;;5072027;28;20063;-67
2021/12/11 08:49:44;;;;;;;2.50;0.85;;;;;;;;;;5071794;28;20040;-68
2021/12/11 08:52:30;;;;;;;0.88;0.40;;;;;;;;;;5089911;28;20032;-68
2021/12/11 08:54:57;;;;;;;0.50;0.40;;;;;;;;;;5069750;28;20335;-67
2021/12/11 08:57:24;;;;;;;0.80;0.50;;;;;;;;;;5088193;28;20028;-67
2021/12/11 08:59:52;;;;;;;0.50;0.40;;;;;;;;;;5070173;28;20502;-67
2021/12/11 09:02:20;;;;;;;1.15;0.52;;;;;;;;;;5069876;28;20067;-67
2021/12/11 09:05:01;;;;;;;1.98;0.60;;;;;;;;;;5069980;28;20136;-67
2021/12/11 09:07:32;;;;;;;0.75;0.60;;;;;;;;;;5081095;28;20574;-68
2021/12/11 09:10:30;;;;;;;1.48;0.70;;;;;;;;;;5067325;28;20060;-67
2021/12/11 09:13:01;;;;;;;0.68;0.57;;;;;;;;;;5023702;28;20530;-67
2021/12/11 09:15:33;;;;;;;0.77;0.50;;;;;;;;;;5051588;28;20037;-66
2021/12/11 09:18:00;;;;;;;1.95;0.50;;;;;;;;;;5068376;28;20484;-66
2021/12/11 09:20:44;;;;;;;1.33;0.68;;;;;;;;;;5070649;28;20043;-66
2021/12/11 09:23:16;;;;;;;2.55;0.70;;;;;;;;;;5078163;28;20379;-65
2021/12/11 09:25:51;;;;;;;1.90;0.73;;;;;;;;;;5086815;28;20062;-66
2021/12/11 09:28:23;;;;;;;0.80;0.50;;;;;;;;;;5069387;28;20150;-65
2021/12/11 09:30:53;;;;;;;0.60;0.55;;;;;;;;;;5068931;28;20115;-65
2021/12/11 09:33:20;;;;;;;0.85;0.55;;;;;;;;;;5086630;28;20055;-65
2021/12/11 09:36:06;;;;;;;2.75;0.60;;;;;;;;;;5069311;28;20034;-67
2021/12/11 09:38:44;;;;;;;1.45;0.50;;;;;;;;;;5068886;28;20579;-66
2021/12/11 09:41:22;;;;;;;1.40;0.75;;;;;;;;;;5071633;28;20043;-66
2021/12/11 09:43:59;;;;;;;2.65;0.70;;;;;;;;;;5069241;28;20117;-67
2021/12/11 09:46:31;;;;;;;1.08;0.50;;;;;;;;;;5069445;28;20144;-66
2021/12/11 09:48:57;;;;;;;0.90;0.50;;;;;;;;;;5085808;28;20040;-67
2021/12/11 09:51:27;;;;;;;0.50;0.50;;;;;;;;;;5087327;28;20043;-67
2021/12/11 09:53:56;;;;;;;1.98;0.60;;;;;;;;;;5069059;28;20082;-66
2021/12/11 09:56:30;;;;;;;1.02;0.60;;;;;;;;;;5086145;28;20089;-66
2021/12/11 09:58:58;;;;;;;1.85;0.50;;;;;;;;;;5070545;28;20042;-66
2021/12/11 10:01:27;;;;;;;1.60;0.50;;;;;;;;;;5070947;28;20036;-65
2021/12/11 10:03:53;;;;;;;;;;;;;;;;;;5071402;28;20032;-65
2021/12/11 10:09:24;;;;;;;1.13;0.60;;;;;;;;;;5078584;28;20066;-65
2021/12/11 10:12:13;;;;;;;1.75;0.60;;;;;;;;;;5070972;28;20028;-65
2021/12/11 10:14:41;;;;;;;2.00;0.80;;;;;;;;;;5080667;28;20441;-65
2021/12/11 10:17:09;;;;;;;2.67;1.00;;;;;;;;;;5088928;28;20089;-65
2021/12/11 10:19:35;;;;;;;1.33;0.60;;;;;;;;;;5088871;28;20102;-65
2021/12/11 10:22:08;;;;;;;2.15;0.90;;;;;;;;;;5087498;28;20511;-65
2021/12/11 10:24:34;;;;;;;3.65;0.85;;;;;;;;;;5070842;28;20028;-66
2021/12/11 10:27:01;;;;;;;2.13;0.80;;;;;;;;;;5070537;28;20032;-65
2021/12/11 10:29:26;;;;;;;2.15;1.00;;;;;;;;;;5070677;28;20040;-66
2021/12/11 10:31:58;;;;;;;3.25;1.10;;;;;;;;;;5088899;28;20036;-67
2021/12/11 10:34:24;;;;;;;2.70;1.00;;;;;;;;;;5070991;28;20036;-65
2021/12/11 10:36:53;;;;;;;3.47;1.35;;;;;;;;;;5086919;28;20480;-65
2021/12/11 10:39:19;;;;;;;2.00;1.17;;;;;;;;;;5087797;28;20066;-66
2021/12/11 10:41:45;;;;;;;1.80;0.80;;;;;;;;;;5088518;28;20064;-65
2021/12/11 10:44:15;;;;;;;1.50;0.80;;;;;;;;;;5070234;28;20127;-65
2021/12/11 10:46:47;;;;;;;3.05;0.93;;;;;;;;;;5058561;28;20464;-65
2021/12/11 10:49:13;;;;;;;2.88;1.50;;;;;;;;;;5075873;28;20028;-66
2021/12/11 10:51:43;;;;;;;2.25;0.80;;;;;;;;;;5050677;28;20131;-67
2021/12/11 10:54:09;;;;;;;2.15;1.10;;;;;;;;;;5050318;28;20028;-66
2021/12/11 10:56:35;;;;;;;3.53;1.10;;;;;;;;;;5068141;28;20040;-66
2021/12/11 10:59:04;;;;;;;2.15;0.82;;;;;;;;;;5072155;28;20123;-66
2021/12/11 11:01:35;;;;;;;3.63;1.00;;;;;;;;;;5061587;28;20028;-65
2021/12/11 11:04:04;;;;;;;1.88;0.98;;;;;;;;;;5075824;28;20078;-66
2021/12/11 11:06:31;;;;;;;1.70;0.90;;;;;;;;;;5051036;28;20495;-65
2021/12/11 11:08:57;;;;;;;2.63;1.02;;;;;;;;;;5058971;28;20287;-67
2021/12/11 11:11:27;;;;;;;4.03;1.00;;;;;;;;;;5059676;28;20036;-66
2021/12/11 11:13:52;;;;;;;4.68;0.82;;;;;;;;;;5055835;28;20488;-64
2021/12/11 11:16:19;;;;;;;2.40;0.93;;;;;;;;;;5065544;28;20032;-67
2021/12/11 11:18:45;;;;;;;3.22;0.90;;;;;;;;;;5033099;28;20037;-65
2021/12/11 11:21:15;;;;;;;1.73;0.70;;;;;;;;;;5075539;28;20032;-66
2021/12/11 11:23:41;;;;;;;1.45;0.70;;;;;;;;;;5077196;28;20064;-66
2021/12/11 11:26:10;;;;;;;1.65;0.90;;;;;;;;;;5066436;28;20037;-65
2021/12/11 11:28:36;;;;;;;2.50;1.25;;;;;;;;;;5064043;28;20047;-64
2021/12/11 11:31:06;;;;;;;2.40;1.08;;;;;;;;;;5074231;28;20024;-65
2021/12/11 11:33:32;;;;;;;2.60;1.13;;;;;;;;;;5058836;28;20460;-64
2021/12/11 11:36:05;;;;;;;2.10;1.05;;;;;;;;;;5075621;28;20112;-64
2021/12/11 11:38:32;;;;;;;3.20;1.30;;;;;;;;;;5081594;28;20035;-67
2021/12/11 11:41:01;;;;;;;4.03;1.50;;;;;;;;;;5084568;28;20111;-67
2021/12/11 11:43:27;;;;;;;3.78;1.20;;;;;;;;;;5071208;28;20029;-66
2021/12/11 11:45:54;;;;;;;2.63;1.25;;;;;;;;;;5052267;28;20487;-65
2021/12/11 11:48:33;;;;;;;3.53;1.30;;;;;;;;;;5072510;28;20040;-66
2021/12/11 11:51:05;;;;;;;5.45;1.67;;;;;;;;;;5053660;28;20124;-68
2021/12/11 11:53:30;;;;;;;2.70;1.52;;;;;;;;;;5071388;28;20036;-66
2021/12/11 11:56:01;;;;;;;2.20;1.05;;;;;;;;;;5071175;28;20057;-66
2021/12/11 11:58:27;;;;;;;2.78;1.20;;;;;;;;;;5053461;28;20041;-66
2021/12/11 12:00:58;;;;;;;2.60;1.15;;;;;;;;;;5074748;28;20032;-67
2021/12/11 12:03:26;;;;;;;3.20;1.10;;;;;;;;;;5088575;28;20058;-68
2021/12/11 12:05:54;;;;;;;2.40;0.90;;;;;;;;;;5061955;28;20387;-69
2021/12/11 12:08:20;;;;;;;2.42;1.00;;;;;;;;;;5080317;28;20036;-68
2021/12/11 12:10:46;;;;;;;1.67;0.88;;;;;;;;;;5078970;28;20035;-68
2021/12/11 12:13:13;;;;;;;2.50;0.90;;;;;;;;;;5079064;28;20024;-68
2021/12/11 12:15:41;;;;;;;4.22;0.93;;;;;;;;;;5068421;28;20024;-67
2021/12/11 12:18:08;;;;;;;1.90;0.68;;;;;;;;;;5077213;28;20490;-65
2021/12/11 12:20:35;;;;;;;2.05;0.75;;;;;;;;;;5078377;28;20119;-66
2021/12/11 12:23:01;;;;;;;1.77;0.82;;;;;;;;;;5058950;28;20036;-65
2021/12/11 12:25:27;;;;;;;1.65;0.85;;;;;;;;;;5052584;28;20044;-64
2021/12/11 12:27:55;;;;;;;2.00;1.00;;;;;;;;;;5069092;28;20064;-63
2021/12/11 12:30:28;;;;;;;2.22;1.00;;;;;;;;;;5078769;28;20060;-64
2021/12/11 12:32:55;;;;;;;2.28;1.10;;;;;;;;;;5076703;28;20433;-64
2021/12/11 12:35:26;;;;;;;2.05;0.90;;;;;;;;;;5091936;28;20035;-64
2021/12/11 12:37:51;;;;;;;1.98;1.00;;;;;;;;;;5089128;28;20027;-66
2021/12/11 12:40:28;;;;;;;4.28;1.20;;;;;;;;;;5090549;28;20036;-66
2021/12/11 12:42:57;;;;;;;2.42;1.00;;;;;;;;;;5090377;28;20342;-66
2021/12/11 12:45:29;;;;;;;2.37;1.13;;;;;;;;;;5070072;28;20024;-65
2021/12/11 12:47:59;;;;;;;3.20;1.83;;;;;;;;;;5087724;28;20058;-66
2021/12/11 12:50:24;;;;;;;;;;;;;;;;;;5070972;28;20036;-67
2021/12/11 12:52:50;;;;;;;3.00;0.88;;;;;;;;;;5087527;28;19969;-66
2021/12/11 12:55:30;;;;;;;3.80;1.00;;;;;;;;;;5088605;28;20036;-68
2021/12/11 12:58:00;;;;;;;2.35;1.00;;;;;;;;;;5070566;28;20059;-66
2021/12/11 13:00:28;;;;;;;2.33;1.10;;;;;;;;;;5089965;28;20032;-68
2021/12/11 13:02:56;;;;;;;1.52;0.90;;;;;;;;;;5071875;28;20040;-67
2021/12/11 13:05:27;;;;;;;1.50;0.90;;;;;;;;;;5090155;28;20032;-66
2021/12/11 13:07:56;;;;;;;2.00;0.80;;;;;;;;;;5088984;28;20074;-65
2021/12/11 13:10:24;;;;;;;2.67;1.10;;;;;;;;;;5072257;28;20032;-68
2021/12/11 13:12:50;;;;;;;2.10;1.00;;;;;;;;;;5089755;28;20028;-65
2021/12/11 13:15:19;;;;;;;2.63;1.00;;;;;;;;;;5070648;28;20123;-66
2021/12/11 13:17:47;;;;;;;2.97;1.10;;;;;;;;;;5077509;28;20074;-66
2021/12/11 13:20:21;;;;;;;3.55;1.08;;;;;;;;;;5063251;28;20025;-67
2021/12/11 13:22:47;;;;;;;2.60;0.80;;;;;;;;;;5060670;28;20033;-68
2021/12/11 13:25:19;;;;;;;2.00;1.00;;;;;;;;;;5062920;28;20032;-65
2021/12/11 13:27:47;;;;;;;1.63;0.90;;;;;;;;;;5077269;28;20223;-66
2021/12/11 13:30:15;;;;;;;2.78;1.00;;;;;;;;;;5079350;28;20029;-66
2021/12/11 13:32:41;;;;;;;2.65;1.00;;;;;;;;;;5073114;28;20469;-66
2021/12/11 13:35:12;;;;;;;1.92;1.00;;;;;;;;;;5069497;28;20039;-67
2021/12/11 13:37:38;;;;;;;2.05;1.05;;;;;;;;;;5069257;28;20040;-65
2021/12/11 13:40:07;;;;;;;2.80;1.23;;;;;;;;;;5085203;28;20043;-65
2021/12/11 13:42:34;;;;;;;8.50;1.27;;;;;;;;;;5088156;28;20413;-67
2021/12/11 13:45:13;;;;;;;1.88;1.05;;;;;;;;;;5071019;28;20046;-66
2021/12/11 13:47:39;;;;;;;2.45;1.23;;;;;;;;;;5071478;28;20039;-66
2021/12/11 13:50:13;;;;;;;1.88;1.00;;;;;;;;;;5089436;28;20383;-66
2021/12/11 13:52:39;;;;;;;1.58;0.90;;;;;;;;;;5088178;28;20071;-65
2021/12/11 13:55:05;;;;;;;1.83;0.80;;;;;;;;;;5089690;28;20081;-67
2021/12/11 13:57:31;;;;;;;1.70;0.98;;;;;;;;;;5070759;28;20038;-66
2021/12/11 13:59:58;;;;;;;1.35;0.90;;;;;;;;;;5089311;28;20020;-65
2021/12/11 14:02:25;;;;;;;1.67;0.70;;;;;;;;;;5088052;28;20395;-65
2021/12/11 14:04:51;;;;;;;2.20;0.80;;;;;;;;;;5087610;28;20485;-67
2021/12/11 14:07:20;;;;;;;1.80;0.73;;;;;;;;;;5070977;28;20384;-65
2021/12/11 14:09:49;;;;;;;3.72;0.98;;;;;;;;;;5070885;28;20065;-66
2021/12/11 14:12:14;;;;;;;2.38;1.00;;;;;;;;;;5087975;28;20035;-65
2021/12/11 14:14:41;;;;;;;3.40;1.02;;;;;;;;;;5089351;28;20491;-65
2021/12/11 14:17:11;;;;;;;2.40;1.40;;;;;;;;;;5067664;28;20040;-65
2021/12/11 14:19:37;;;;;;;;;;;;;;;;;;5068725;28;20043;-65
2021/12/11 14:22:05;;;;;;;2.17;1.00;;;;;;;;;;5089108;28;19912;-66
2021/12/11 14:24:34;;;;;;;2.10;1.00;;;;;;;;;;5086725;28;20135;-65
2021/12/11 14:27:02;;;;;;;1.80;0.90;;;;;;;;;;5085670;28;20110;-67
2021/12/11 14:29:29;;;;;;;1.60;0.85;;;;;;;;;;5086223;28;20044;-65
2021/12/11 14:31:55;;;;;;;1.45;0.70;;;;;;;;;;5085276;28;20036;-65
2021/12/11 14:34:21;;;;;;;1.65;0.90;;;;;;;;;;5086530;28;20040;-67
2021/12/11 14:36:47;;;;;;;1.38;0.73;;;;;;;;;;5085903;28;20036;-65
2021/12/11 14:39:17;;;;;;;1.95;1.10;;;;;;;;;;5070354;28;20486;-65
2021/12/11 14:41:46;;;;;;;2.47;0.95;;;;;;;;;;5086089;28;20028;-64
2021/12/11 14:44:15;;;;;;;4.22;1.20;;;;;;;;;;5068471;28;20028;-66
2021/12/11 14:46:41;;;;;;;5.78;1.15;;;;;;;;;;5067303;28;20032;-66
2021/12/11 14:49:06;;;;;;;4.07;1.00;;;;;;;;;;5085178;28;20024;-65
2021/12/11 14:51:32;;;;;;;1.98;1.10;;;;;;;;;;5084877;28;20518;-67
2021/12/11 14:53:58;;;;;;;2.85;1.10;;;;;;;;;;5083161;28;20472;-65
2021/12/11 14:56:33;;;;;;;1.85;0.90;;;;;;;;;;5085898;28;20028;-66
2021/12/11 14:59:00;;;;;;;2.55;1.00;;;;;;;;;;5060997;28;20045;-65
2021/12/11 15:01:28;;;;;;;1.65;0.85;;;;;;;;;;5058009;28;20086;-69
2021/12/11 15:03:55;;;;;;;2.65;1.00;;;;;;;;;;5071836;28;20029;-68
2021/12/11 15:06:20;;;;;;;2.45;1.20;;;;;;;;;;5088043;28;20036;-67
2021/12/11 15:08:46;;;;;;;3.63;1.17;;;;;;;;;;5071677;28;20040;-66